Latest Weather Observations for Parkes Airport

IDN60801

Issued at 4:32 pm EDT Friday 12 February 2016 (issued every 30 minutes, with the page automatically refreshed every 10 minutes)

About weather observations | Map of weather stations | Latest weather observations for NSW | Other Formats
Station Details ID: 065068 Name: PARKES AIRPORT AWS Lat: -33.13 Lon: 148.24 Height: 323.3 m
Data from the previous 72 hours. | See also: Recent months at Parkes Airport
Date/Time
EDT
Temp
°C
App
Temp
°C
Dew
Point
Rel
Hum
%
Delta-T
°C
Wind Press
QNH
hPa
Press
MSL
hPa
Rain
since 9 am
mm
Dir
 
Spd
km/h
Gust
km/h
Spd
kts
Gust
kts
12/04:30pm 33.0 29.9 7.1 20 14.4 NW 13 17 7 9 1012.1 1010.3 0.0
12/04:00pm 33.5 30.8 7.5 20 14.6 NW 11 19 6 10 1012.3 1010.5 0.0
12/03:30pm 34.4 31.3 8.9 21 14.7 W 15 22 8 12 1012.7 1010.9 0.0
12/03:00pm 33.4 30.3 8.8 22 14.1 NW 15 26 8 14 1013.1 1011.4 0.0
12/02:30pm 33.2 30.5 10.5 25 13.3 NNW 15 28 8 15 1013.5 1011.8 0.0
12/02:00pm 33.2 30.8 9.9 24 13.5 N 13 24 7 13 1013.8 1012.1 0.0
12/01:30pm 32.4 30.1 11.6 28 12.4 NNW 15 24 8 13 1014.3 1012.5 0.0
12/01:00pm 32.6 30.3 11.7 28 12.4 N 15 20 8 11 1014.6 1012.8 0.0
12/12:30pm 30.8 29.0 10.7 29 11.7 NE 11 26 6 14 1015.1 1013.3 0.0
12/12:00pm 30.7 29.3 12.1 32 11.0 NE 11 20 6 11 1015.5 1013.7 0.0
12/11:30am 30.7 28.5 12.1 32 11.1 N 15 20 8 11 1015.7 1014.0 0.0
12/11:00am 30.1 28.1 11.6 32 10.9 NNE 13 19 7 10 1015.8 1014.1 0.0
12/10:30am 29.7 27.4 11.7 33 10.6 NE 15 22 8 12 1015.8 1014.1 0.0
12/10:00am 28.5 26.0 13.6 40 9.0 ENE 19 24 10 13 1015.8 1014.1 0.0
12/09:30am 26.9 24.4 14.0 45 7.8 ENE 20 26 11 14 1015.8 1014.1 0.0
12/09:00am 25.7 22.6 14.5 50 6.8 NE 24 32 13 17 1015.8 1014.1 0.0
12/08:30am 24.6 22.9 14.7 54 6.0 ENE 17 22 9 12 1015.5 1013.7 0.0
12/08:00am 22.8 21.1 14.6 60 4.9 ENE 17 22 9 12 1015.4 1013.6 0.0
12/07:30am 20.8 19.9 13.7 64 4.2 ENE 11 19 6 10 1015.1 1013.3 0.0
12/07:00am 18.1 17.3 12.8 71 3.0 ENE 9 17 5 9 1014.8 1013.0 0.0
12/06:30am 14.1 13.1 10.3 78 2.0 NE 6 11 3 6 1014.3 1012.5 0.0
12/06:00am 17.3 15.6 12.4 73 2.8 E 13 15 7 8 1013.6 1011.9 0.0
12/05:30am 15.5 14.3 11.5 77 2.2 ENE 9 13 5 7 1013.5 1011.8 0.0
12/05:00am 15.1 15.2 11.5 79 2.0 NE 2 7 1 4 1013.3 1011.6 0.0
12/04:30am 17.1 15.4 12.6 75 2.5 ENE 13 15 7 8 1013.3 1011.6 0.0
12/04:00am 16.9 15.4 12.0 73 2.7 E 11 13 6 7 1013.4 1011.7 0.0
12/03:30am 17.3 15.6 12.4 73 2.8 E 13 13 7 7 1013.8 1012.1 0.0
12/03:00am 17.1 16.1 12.2 73 2.7 NNE 9 11 5 6 1014.2 1012.4 0.0
12/02:30am 17.8 17.0 11.8 68 3.3 NNE 7 9 4 5 1014.3 1012.5 0.0
12/02:00am 18.3 16.9 12.1 67 3.5 NE 11 15 6 8 1014.6 1012.8 0.0
12/01:30am 19.5 18.9 12.3 63 4.1 NE 7 9 4 5 1015.1 1013.3 0.0
12/01:00am 19.1 17.8 11.4 61 4.3 ENE 9 13 5 7 1015.3 1013.5 0.0
12/12:30am 20.1 19.3 11.8 59 4.7 SSW 7 13 4 7 1015.5 1013.7 0.0
12/12:00am 22.1 22.1 12.4 54 5.6 SSE 4 9 2 5 1015.1 1013.3 0.0
 
Date/Time
EDT
Temp
°C
App
Temp
°C
Dew
Point
Rel
Hum
%
Delta-T
°C
Wind Press
QNH
hPa
Press
MSL
hPa
Rain
since 9 am
mm
Dir
 
Spd
km/h
Gust
km/h
Spd
kts
Gust
kts
11/11:30pm 21.0 20.5 10.8 52 5.7 NNE 4 9 2 5 1014.4 1012.6 0.0
11/11:00pm 21.7 20.3 10.8 50 6.1 NE 9 13 5 7 1014.5 1012.7 0.0
11/10:30pm 23.5 21.0 11.2 46 7.0 ENE 15 17 8 9 1014.4 1012.6 0.0
11/10:00pm 25.1 22.1 10.6 40 8.2 NNE 17 26 9 14 1014.3 1012.5 0.0
11/09:30pm 25.3 21.9 10.7 40 8.3 ENE 19 24 10 13 1013.3 1011.6 0.0
11/09:00pm 25.2 22.9 9.1 36 8.9 N 11 15 6 8 1012.6 1010.8 0.0
11/08:30pm 25.6 23.3 9.0 35 9.2 NNE 11 13 6 7 1012.2 1010.4 0.0
11/08:00pm 28.2 25.3 9.5 31 10.5 N 15 20 8 11 1011.8 1010.0 0.0
11/07:30pm 30.0 26.1 9.5 28 11.7 N 20 28 11 15 1011.2 1009.4 0.0
11/07:00pm 31.9 29.1 10.0 26 12.7 NNE 15 17 8 9 1010.4 1008.7 0.0
11/06:30pm 31.5 29.1 10.2 27 12.3 ENE 13 17 7 9 1010.2 1008.5 0.0
11/06:00pm 31.5 28.0 10.2 27 12.3 E 19 22 10 12 1009.9 1008.1 0.0
11/05:30pm 31.4 26.4 9.6 26 12.5 E 26 30 14 16 1009.9 1008.1 0.0
11/05:00pm 34.8 30.5 7.0 18 15.6 SW 19 24 10 13 1009.8 1008.0 0.0
11/04:30pm 35.9 31.4 6.2 16 16.5 WNW 19 28 10 15 1009.8 1008.0 0.0
11/04:00pm 34.5 31.8 7.5 19 15.2 NW 11 19 6 10 1010.2 1008.5 0.0
11/03:30pm 35.3 30.7 8.2 19 15.5 WNW 22 32 12 17 1010.8 1009.0 0.0
11/03:00pm 34.3 30.4 8.8 21 14.6 WNW 19 30 10 16 1011.4 1009.6 0.0
11/02:30pm 35.0 32.4 10.8 23 14.4 W 15 32 8 17 1011.9 1010.1 0.0
11/02:00pm 33.9 31.1 9.9 23 14.0 W 15 30 8 16 1012.4 1010.6 0.0
11/01:30pm 33.7 30.3 9.0 22 14.2 NW 17 35 9 19 1012.6 1010.8 0.0
11/01:00pm 34.2 31.2 10.7 24 13.9 NNW 17 32 9 17 1012.8 1011.0 0.0
11/12:30pm 32.8 29.3 10.2 25 13.2 NNW 19 30 10 16 1013.2 1011.5 0.0
11/12:00pm 33.7 29.3 10.3 24 13.7 NNW 24 39 13 21 1013.6 1011.9 0.0
11/11:30am 32.5 27.7 8.7 23 13.5 N 24 33 13 18 1013.8 1012.1 0.0
11/11:00am 31.9 27.4 10.0 26 12.7 N 24 35 13 19 1014.1 1012.3 0.0
11/10:30am 31.8 27.0 8.7 24 13.1 N 24 35 13 19 1014.2 1012.4 0.0
11/10:00am 29.7 25.1 9.8 29 11.4 N 24 32 13 17 1014.2 1012.4 0.0
11/09:30am 29.2 27.5 12.6 36 9.9 N 13 19 7 10 1014.4 1012.6 0.0
11/09:00am 26.8 26.7 14.9 48 7.3 N 9 15 5 8 1014.4 1012.6 0.0
11/08:30am 23.2 24.6 14.5 58 5.2 CALM 0 0 0 0 1014.3 1012.5 0.0
11/08:00am 22.2 22.4 14.1 60 4.8 NNE 6 7 3 4 1014.1 1012.3 0.0
11/07:30am 20.0 20.2 14.8 72 3.1 NE 7 9 4 5 1013.6 1011.9 0.0
11/07:00am 17.3 17.4 13.8 80 2.0 NE 6 7 3 4 1013.2 1011.5 0.0
11/06:30am 16.5 15.7 13.0 80 2.0 NE 9 9 5 5 1012.8 1011.0 0.0
11/06:00am 16.7 16.3 13.0 79 2.1 NE 7 9 4 5 1012.7 1010.9 0.0
11/05:30am 18.3 16.4 13.0 71 3.0 ENE 15 15 8 8 1012.5 1010.7 0.0
11/05:00am 17.9 17.1 12.8 72 2.9 ENE 9 11 5 6 1012.4 1010.6 0.0
11/04:30am 17.5 16.7 12.8 74 2.7 ENE 9 11 5 6 1012.2 1010.4 0.0
11/04:00am 17.7 18.4 12.2 70 3.1 CALM 0 7 0 4 1012.3 1010.5 0.0
11/03:30am 19.6 19.0 12.4 63 4.1 SSW 7 11 4 6 1012.4 1010.6 0.0
11/03:00am 19.5 20.1 12.0 62 4.2 CALM 0 0 0 0 1012.4 1010.6 0.0
11/02:30am 18.1 18.5 11.4 65 3.7 CALM 0 0 0 0 1012.4 1010.6 0.0
11/02:00am 19.1 19.6 11.7 62 4.1 CALM 0 0 0 0 1012.6 1010.8 0.0
11/01:30am 18.8 16.8 11.6 63 4.0 ENE 13 17 7 9 1012.8 1011.0 0.0
11/01:00am 19.4 18.6 11.7 61 4.3 ENE 7 9 4 5 1012.4 1010.6 0.0
11/12:30am 19.6 18.9 12.1 62 4.2 N 7 9 4 5 1012.4 1010.6 0.0
11/12:00am 20.2 19.3 11.4 57 4.9 NE 7 9 4 5 1012.4 1010.6 0.0
 
Date/Time
EDT
Temp
°C
App
Temp
°C
Dew
Point
Rel
Hum
%
Delta-T
°C
Wind Press
QNH
hPa
Press
MSL
hPa
Rain
since 9 am
mm
Dir
 
Spd
km/h
Gust
km/h
Spd
kts
Gust
kts
10/11:30pm 21.3 20.6 11.9 55 5.3 NNE 7 9 4 5 1012.4 1010.6 0.0
10/11:00pm 20.7 19.6 11.9 57 5.0 NNE 9 9 5 5 1012.4 1010.6 0.0
10/10:30pm 22.6 21.9 12.0 51 6.1 NE 7 11 4 6 1012.5 1010.7 0.0
10/10:00pm 22.2 20.7 10.7 48 6.4 E 9 13 5 7 1012.6 1010.8 0.0
10/09:30pm 23.5 22.3 11.5 47 6.8 ENE 9 13 5 7 1012.4 1010.6 0.0
10/09:00pm 24.6 24.7 10.1 40 8.1 CALM 0 0 0 0 1012.2 1010.4 0.0
10/08:30pm 26.8 26.9 10.1 35 9.4 CALM 0 0 0 0 1012.1 1010.3 0.0
10/08:00pm 30.3 29.4 9.2 27 12.0 SW 4 7 2 4 1012.0 1010.2 0.0
10/07:30pm 32.1 30.0 9.6 25 12.9 SW 11 15 6 8 1011.8 1010.0 0.0
10/07:00pm 32.4 29.8 9.2 24 13.3 SSW 13 19 7 10 1011.6 1009.8 0.0
10/06:30pm 33.3 30.6 7.3 20 14.5 S 11 19 6 10 1011.5 1009.7 0.0
10/06:00pm 33.7 29.5 7.6 20 14.7 S 19 28 10 15 1011.5 1009.7 0.0
10/05:30pm 33.6 30.7 8.3 21 14.4 S 13 26 7 14 1011.5 1009.7 0.0
10/05:00pm 33.4 31.3 8.1 21 14.3 WNW 9 20 5 11 1011.6 1009.8 0.0
10/04:30pm 34.9 32.5 10.0 22 14.6 W 13 26 7 14 1011.7 1009.9 0.0
10/04:00pm 33.1 31.6 10.4 25 13.3 NNW 9 17 5 9 1012.1 1010.3 0.0
10/03:30pm 32.3 30.8 10.4 26 12.8 SW 9 17 5 9 1012.5 1010.7 0.0
10/03:00pm 32.5 31.2 11.1 27 12.6 WSW 9 19 5 10 1012.9 1011.1 0.0
10/02:30pm 32.4 30.8 11.6 28 12.4 SW 11 17 6 9 1013.4 1011.7 0.0
10/02:00pm 32.4 29.8 12.1 29 12.1 WNW 17 30 9 16 1013.9 1012.2 0.0
10/01:30pm 31.1 30.0 12.0 31 11.4 WNW 9 20 5 11 1014.5 1012.7 0.0
10/01:00pm 31.8 30.7 13.1 32 11.3 NW 11 24 6 13 1014.8 1013.0 0.0
10/12:30pm 30.1 29.0 12.1 33 10.7 N 9 20 5 11 1015.3 1013.5 0.0
10/12:00pm 30.3 29.2 13.1 34 10.4 NNW 11 20 6 11 1015.7 1014.0 0.0
10/11:30am 28.5 27.2 12.4 37 9.5 NNE 11 20 6 11 1016.2 1014.5 0.0
10/11:00am 27.9 27.4 12.7 39 9.0 N 7 15 4 8 1016.6 1014.9 0.0
10/10:30am 26.9 24.0 12.2 40 8.6 N 19 26 10 14 1016.7 1015.0 0.0
10/10:00am 26.3 23.1 13.1 44 7.8 NE 22 30 12 16 1016.5 1014.8 0.0
10/09:30am 25.5 22.8 13.4 47 7.2 NE 20 28 11 15 1016.8 1015.1 0.0
10/09:00am 24.4 22.1 13.0 49 6.7 NE 17 24 9 13 1017.0 1015.3 0.0
10/08:30am 23.5 21.7 13.4 53 5.9 NE 15 20 8 11 1017.0 1015.3 0.0
10/08:00am 21.9 21.2 13.3 58 5.0 E 9 13 5 7 1016.8 1015.1 0.0
10/07:30am 20.4 18.7 13.6 65 4.0 ENE 15 20 8 11 1016.2 1014.5 0.0
10/07:00am 18.6 17.4 14.1 75 2.6 NE 13 17 7 9 1016.2 1014.5 0.0
10/06:30am 18.9 17.2 13.7 72 3.0 NE 15 20 8 11 1016.0 1014.3 0.0
10/06:00am 18.4 17.0 13.5 73 2.8 NE 13 17 7 9 1015.9 1014.2 0.0
10/05:30am 19.3 17.8 14.3 73 2.9 NE 15 19 8 10 1015.8 1014.1 0.0
10/05:00am 18.6 17.5 14.3 76 2.5 NE 13 15 7 8 1015.6 1013.8 0.0
10/04:30am 19.8 18.5 14.8 73 3.0 NE 15 19 8 10 1015.3 1013.5 0.0
10/04:00am 20.3 18.7 14.9 71 3.2 NE 17 20 9 11 1015.3 1013.5 0.0
10/03:30am 21.0 19.5 15.3 70 3.4 NE 17 20 9 11 1015.4 1013.6 0.0
10/03:00am 20.9 19.9 15.7 72 3.1 NE 15 22 8 12 1015.6 1013.8 0.0
10/02:30am 20.9 19.7 15.0 69 3.5 NE 15 17 8 9 1015.8 1014.1 0.0
10/02:00am 22.2 20.6 15.1 64 4.3 NNE 17 22 9 12 1016.0 1014.3 0.0
10/01:30am 22.6 21.3 14.7 61 4.7 NNE 15 20 8 11 1016.1 1014.4 0.0
10/01:00am 22.2 20.7 14.1 60 4.8 NNE 15 20 8 11 1016.1 1014.4 0.0
10/12:30am 22.9 21.6 13.7 56 5.4 NE 13 15 7 8 1016.2 1014.5 0.0
10/12:00am 24.0 22.6 14.4 55 5.8 ENE 15 17 8 9 1016.3 1014.6 0.0
 
Date/Time
EDT
Temp
°C
App
Temp
°C
Dew
Point
Rel
Hum
%
Delta-T
°C
Wind Press
QNH
hPa
Press
MSL
hPa
Rain
since 9 am
mm
Dir
 
Spd
km/h
Gust
km/h
Spd
kts
Gust
kts
09/11:30pm 24.0 22.8 14.1 54 5.9 NE 13 17 7 9 1016.4 1014.7 0.0
09/11:00pm 24.6 23.9 14.4 53 6.1 NE 11 15 6 8 1016.6 1014.9 0.0
09/10:30pm 25.4 24.3 14.2 50 6.7 NE 13 17 7 9 1016.6 1014.9 0.0
09/10:00pm 26.6 24.5 14.7 48 7.2 NE 19 24 10 13 1016.4 1014.7 0.0
09/09:30pm 22.0 20.6 10.8 49 6.3 E 9 15 5 8 1016.1 1014.4 0.0
09/09:00pm 25.9 24.3 10.1 37 8.9 SE 9 11 5 6 1015.8 1014.1 0.0
09/08:30pm 25.9 24.1 9.3 35 9.2 SSE 9 11 5 6 1015.6 1013.8 0.0
09/08:00pm 30.0 28.5 9.0 27 11.8 SSE 7 9 4 5 1015.5 1013.7 0.0
09/07:30pm 31.5 29.6 9.1 25 12.7 S 9 15 5 8 1015.4 1013.6 0.0
09/07:00pm 32.3 28.4 8.5 23 13.5 SSE 19 26 10 14 1015.0 1013.2 0.0
09/06:30pm 32.8 29.3 8.9 23 13.6 SSE 17 24 9 13 1014.8 1013.0 0.0
09/06:00pm 32.6 29.5 8.8 23 13.5 SSE 15 24 8 13 1015.0 1013.2 0.0
09/05:30pm 32.7 30.3 11.3 27 12.7 SSE 15 24 8 13 1015.2 1013.4 0.0
09/05:00pm 31.9 28.7 10.0 26 12.7 SSE 17 26 9 14 1015.6 1013.8 0.0

Other Formats:

Comma delimited format used in spreadsheet applications
http://www.bom.gov.au/fwo/IDN60801/IDN60801.95717.axf

JavaScript Object Notation format (JSON) in row-major order
http://www.bom.gov.au/fwo/IDN60801/IDN60801.95717.json